createdAt,value
2023-01-23T00:00:54.873Z,61.65
2023-01-23T00:01:54.856Z,61.65
2023-01-23T00:02:54.835Z,61.65
2023-01-23T00:03:54.910Z,61.65
2023-01-23T00:04:54.809Z,61.65
2023-01-23T00:05:54.818Z,61.65
2023-01-23T00:06:54.800Z,61.65
2023-01-23T00:07:54.799Z,61.74
2023-01-23T00:08:54.776Z,61.74
2023-01-23T00:09:54.770Z,61.85
2023-01-23T00:10:54.757Z,61.85
2023-01-23T00:11:54.784Z,61.74
2023-01-23T00:12:54.779Z,61.74
2023-01-23T00:13:54.716Z,61.74
2023-01-23T00:14:54.719Z,61.85
2023-01-23T00:15:54.797Z,61.85
2023-01-23T00:16:54.948Z,61.85
2023-01-23T00:17:54.971Z,61.85
2023-01-23T00:18:54.698Z,61.94
2023-01-23T00:19:54.659Z,61.94
2023-01-23T00:20:54.667Z,61.94
2023-01-23T00:21:54.643Z,61.98
2023-01-23T00:22:54.615Z,61.98
2023-01-23T00:23:54.637Z,61.98
2023-01-23T00:24:54.631Z,61.98
2023-01-23T00:25:54.618Z,61.98
2023-01-23T00:26:54.590Z,61.98
2023-01-23T00:27:54.609Z,61.87
2023-01-23T00:28:54.586Z,61.98
2023-01-23T00:29:54.649Z,61.98
2023-01-23T00:30:54.620Z,62.07
2023-01-23T00:31:54.579Z,62.07
2023-01-23T00:32:54.512Z,62.07
2023-01-23T00:33:54.596Z,62.07
2023-01-23T00:34:54.562Z,62.07
2023-01-23T00:35:54.538Z,62.07
2023-01-23T00:36:54.500Z,62.07
2023-01-23T00:37:54.715Z,62.07
2023-01-23T00:38:54.454Z,62.07
2023-01-23T00:39:55.189Z,61.98
2023-01-23T00:40:54.664Z,61.94
2023-01-23T00:41:54.455Z,61.85
2023-01-23T00:42:54.494Z,61.85
2023-01-23T00:43:54.689Z,61.85
2023-01-23T00:44:54.378Z,61.74
2023-01-23T00:45:54.527Z,61.74
2023-01-23T00:46:54.365Z,61.74
2023-01-23T00:47:54.378Z,61.74
2023-01-23T00:48:54.557Z,61.65
2023-01-23T00:49:54.343Z,61.65
2023-01-23T00:50:54.369Z,61.65
2023-01-23T00:51:55.214Z,61.65
2023-01-23T00:52:54.441Z,61.65
2023-01-23T00:53:54.306Z,61.65
2023-01-23T00:54:54.495Z,61.65
2023-01-23T00:55:54.393Z,61.65
2023-01-23T00:56:54.304Z,61.65
2023-01-23T00:57:54.242Z,61.65
2023-01-23T00:58:54.243Z,61.74
2023-01-23T00:59:54.238Z,61.74
2023-01-23T01:00:54.231Z,61.65
2023-01-23T01:01:54.307Z,61.65
2023-01-23T01:02:54.286Z,61.65
2023-01-23T01:03:54.296Z,61.65
2023-01-23T01:04:54.183Z,61.65
2023-01-23T01:05:54.194Z,61.65
2023-01-23T01:06:54.143Z,61.65
2023-01-23T01:07:54.202Z,61.65
2023-01-23T01:08:54.131Z,61.65
2023-01-23T01:09:54.143Z,61.65
2023-01-23T01:10:54.105Z,61.65
2023-01-23T01:11:54.103Z,61.65
2023-01-23T01:12:54.097Z,61.57
2023-01-23T01:13:54.101Z,61.67
2023-01-23T01:14:54.065Z,61.87
2023-01-23T01:15:54.101Z,62.18
2023-01-23T01:16:54.086Z,62.48
2023-01-23T01:17:54.053Z,62.58
2023-01-23T01:18:55.002Z,62.58
2023-01-23T01:19:54.045Z,62.78
2023-01-23T01:20:54.126Z,62.88
2023-01-23T01:21:53.998Z,62.88
2023-01-23T01:22:53.978Z,62.98
2023-01-23T01:23:54.000Z,63.08
2023-01-23T01:24:53.988Z,63.18
2023-01-23T01:25:53.971Z,63.18
2023-01-23T01:26:53.960Z,63.28
2023-01-23T01:27:54.625Z,63.28
2023-01-23T01:28:53.975Z,63.28
2023-01-23T01:29:53.931Z,63.28
2023-01-23T01:30:54.126Z,63.28
2023-01-23T01:31:53.951Z,63.39
2023-01-23T01:32:53.884Z,63.39
2023-01-23T01:33:53.881Z,63.39
2023-01-23T01:34:53.841Z,63.39
2023-01-23T01:35:53.880Z,63.59
2023-01-23T01:36:53.845Z,65.59
2023-01-23T01:37:53.837Z,65.09
2023-01-23T01:38:53.831Z,64.92
2023-01-23T01:39:53.879Z,65.53
2023-01-23T01:40:53.801Z,65.73
2023-01-23T01:41:53.819Z,65.62
2023-01-23T01:42:53.782Z,65.33
2023-01-23T01:43:53.763Z,65.42
2023-01-23T01:44:53.754Z,65.42
2023-01-23T01:45:53.761Z,65.42
2023-01-23T01:46:53.805Z,65.53
2023-01-23T01:47:53.714Z,65.62
2023-01-23T01:48:53.735Z,65.66
2023-01-23T01:49:53.696Z,65.66
2023-01-23T01:50:53.729Z,65.76
2023-01-23T01:51:53.720Z,65.86
2023-01-23T01:52:53.698Z,65.86
2023-01-23T01:53:53.671Z,65.86
2023-01-23T01:54:53.655Z,65.76
2023-01-23T01:55:54.316Z,65.86
2023-01-23T01:56:53.624Z,65.86
2023-01-23T01:57:53.594Z,65.96
2023-01-23T01:58:53.611Z,66.06
2023-01-23T01:59:53.595Z,66.06
2023-01-23T02:00:53.655Z,66.06
2023-01-23T02:01:53.588Z,66.06
2023-01-23T02:02:53.846Z,66.06
2023-01-23T02:03:53.548Z,66.16
2023-01-23T02:04:53.545Z,66.27
2023-01-23T02:05:53.531Z,66.30
2023-01-23T02:06:53.531Z,66.30
2023-01-23T02:07:53.493Z,66.39
2023-01-23T02:08:53.705Z,66.50
2023-01-23T02:09:53.480Z,66.50
2023-01-23T02:10:53.509Z,66.60
2023-01-23T02:11:53.497Z,66.70
2023-01-23T02:12:53.499Z,66.70
2023-01-23T02:13:53.454Z,66.70
2023-01-23T02:14:53.454Z,66.80
2023-01-23T02:15:53.432Z,66.90
2023-01-23T02:16:53.431Z,67.91
2023-01-23T02:17:53.415Z,69.12
2023-01-23T02:18:53.394Z,68.41
2023-01-23T02:19:53.363Z,68.01
2023-01-23T02:20:53.377Z,67.80
2023-01-23T02:21:53.363Z,67.60
2023-01-23T02:22:53.369Z,67.63
2023-01-23T02:23:53.310Z,67.63
2023-01-23T02:24:53.321Z,67.63
2023-01-23T02:25:53.347Z,67.63
2023-01-23T02:26:53.308Z,67.63
2023-01-23T02:27:53.302Z,67.54
2023-01-23T02:28:53.269Z,67.63
2023-01-23T02:29:53.288Z,67.63
2023-01-23T02:30:53.327Z,67.63
2023-01-23T02:31:53.299Z,67.63
2023-01-23T02:32:53.225Z,67.63
2023-01-23T02:33:53.244Z,67.63
2023-01-23T02:34:53.198Z,67.74
2023-01-23T02:35:53.189Z,67.74
2023-01-23T02:36:53.221Z,67.74
2023-01-23T02:37:53.200Z,67.63
2023-01-23T02:38:53.160Z,67.63
2023-01-23T02:39:53.837Z,67.63
2023-01-23T02:40:53.135Z,67.63
2023-01-23T02:41:53.137Z,67.63
2023-01-23T02:42:53.134Z,67.63
2023-01-23T02:43:53.100Z,67.63
2023-01-23T02:44:53.109Z,67.63
2023-01-23T02:45:53.159Z,67.63
2023-01-23T02:46:53.070Z,67.63
2023-01-23T02:47:53.079Z,67.63
2023-01-23T02:48:53.063Z,67.63
2023-01-23T02:49:53.043Z,67.63
2023-01-23T02:50:53.275Z,67.63
2023-01-23T02:51:53.023Z,67.63
2023-01-23T02:52:53.040Z,67.57
2023-01-23T02:53:53.059Z,67.67
2023-01-23T02:54:52.989Z,67.57
2023-01-23T02:55:52.981Z,67.67
2023-01-23T02:56:52.969Z,67.67
2023-01-23T02:57:52.960Z,67.67
2023-01-23T02:58:53.002Z,67.77
2023-01-23T02:59:53.170Z,67.77
2023-01-23T03:00:52.956Z,67.77
2023-01-23T03:01:52.936Z,67.77
2023-01-23T03:02:52.921Z,67.77
2023-01-23T03:03:52.909Z,67.77
2023-01-23T03:04:52.890Z,67.77
2023-01-23T03:05:52.868Z,67.77
2023-01-23T03:06:52.877Z,67.77
2023-01-23T03:07:52.862Z,67.87
2023-01-23T03:08:52.826Z,67.87
2023-01-23T03:09:52.880Z,67.87
2023-01-23T03:10:52.816Z,67.87
2023-01-23T03:11:52.810Z,67.87
2023-01-23T03:12:52.799Z,67.87
2023-01-23T03:13:52.843Z,67.87
2023-01-23T03:14:52.803Z,67.87
2023-01-23T03:15:52.757Z,67.87
2023-01-23T03:16:52.755Z,67.97
2023-01-23T03:17:52.761Z,67.97
2023-01-23T03:18:54.731Z,67.97
2023-01-23T03:19:52.718Z,67.97
2023-01-23T03:20:52.722Z,68.01
2023-01-23T03:21:52.694Z,68.10
2023-01-23T03:22:52.710Z,68.10
2023-01-23T03:23:52.685Z,68.10
2023-01-23T03:24:52.676Z,68.10
2023-01-23T03:25:52.717Z,68.10
2023-01-23T03:26:53.597Z,68.10
2023-01-23T03:27:52.651Z,68.10
2023-01-23T03:28:53.607Z,68.10
2023-01-23T03:29:52.653Z,68.10
2023-01-23T03:30:52.629Z,68.10
2023-01-23T03:31:52.716Z,68.10
2023-01-23T03:32:52.580Z,68.10
2023-01-23T03:33:53.543Z,68.10
2023-01-23T03:34:53.513Z,68.10
2023-01-23T03:35:52.625Z,68.10
2023-01-23T03:36:52.672Z,68.10
2023-01-23T03:37:52.527Z,68.10
2023-01-23T03:38:52.955Z,68.10
2023-01-23T03:39:52.518Z,68.10
2023-01-23T03:40:52.509Z,68.10
2023-01-23T03:41:52.483Z,68.10
2023-01-23T03:42:52.532Z,68.10
2023-01-23T03:43:52.477Z,68.10
2023-01-23T03:44:52.448Z,68.10
2023-01-23T03:45:52.695Z,68.10
2023-01-23T03:46:52.446Z,68.21
2023-01-23T03:47:52.415Z,68.21
2023-01-23T03:48:52.411Z,68.21
2023-01-23T03:49:52.393Z,68.21
2023-01-23T03:50:52.468Z,68.21
2023-01-23T03:51:52.379Z,68.21
2023-01-23T03:52:52.378Z,68.21
2023-01-23T03:53:52.347Z,68.21
2023-01-23T03:54:52.374Z,68.21
2023-01-23T03:55:52.365Z,68.24
2023-01-23T03:56:52.348Z,68.24
2023-01-23T03:57:52.325Z,68.24
2023-01-23T03:58:52.299Z,68.24
2023-01-23T03:59:52.399Z,68.24
2023-01-23T04:00:52.335Z,68.24
2023-01-23T04:01:52.321Z,68.24
2023-01-23T04:02:52.325Z,68.24
2023-01-23T04:03:52.260Z,68.24
2023-01-23T04:04:52.225Z,68.24
2023-01-23T04:05:52.213Z,68.24
2023-01-23T04:06:52.213Z,68.24
2023-01-23T04:07:52.217Z,68.24
2023-01-23T04:08:52.220Z,68.24
2023-01-23T04:09:52.185Z,68.24
2023-01-23T04:10:52.160Z,68.24
2023-01-23T04:11:52.158Z,68.24
2023-01-23T04:12:52.163Z,68.24
2023-01-23T04:13:52.199Z,68.24
2023-01-23T04:14:52.127Z,68.24
2023-01-23T04:15:52.116Z,68.24
2023-01-23T04:16:52.168Z,68.24
2023-01-23T04:17:52.129Z,68.13
2023-01-23T04:18:52.125Z,68.13
2023-01-23T04:19:52.078Z,68.24
2023-01-23T04:20:52.071Z,68.24
2023-01-23T04:21:52.050Z,68.24
2023-01-23T04:22:52.038Z,68.24
2023-01-23T04:23:52.059Z,68.24
2023-01-23T04:24:52.010Z,68.24
2023-01-23T04:25:52.680Z,68.24
2023-01-23T04:26:52.003Z,68.24
2023-01-23T04:27:52.001Z,68.24
2023-01-23T04:28:52.026Z,68.24
2023-01-23T04:29:51.955Z,68.33
2023-01-23T04:30:52.058Z,68.33
2023-01-23T04:31:52.279Z,68.33
2023-01-23T04:32:51.945Z,68.33
2023-01-23T04:33:51.920Z,68.33
2023-01-23T04:34:51.924Z,68.44
2023-01-23T04:35:51.933Z,68.44
2023-01-23T04:36:51.920Z,68.44
2023-01-23T04:37:51.863Z,68.44
2023-01-23T04:38:51.870Z,68.47
2023-01-23T04:39:51.875Z,68.47
2023-01-23T04:40:51.892Z,68.47
2023-01-23T04:41:51.840Z,68.57
2023-01-23T04:42:51.883Z,68.57
2023-01-23T04:43:51.811Z,68.57
2023-01-23T04:44:51.806Z,68.57
2023-01-23T04:45:51.818Z,68.57
2023-01-23T04:46:51.803Z,68.57
2023-01-23T04:47:51.766Z,68.57
2023-01-23T04:48:51.758Z,68.57
2023-01-23T04:49:51.748Z,68.57
2023-01-23T04:50:51.805Z,68.57
2023-01-23T04:51:51.802Z,68.57
2023-01-23T04:52:51.712Z,68.57
2023-01-23T04:53:51.711Z,68.67
2023-01-23T04:54:51.714Z,68.67
2023-01-23T04:55:51.708Z,68.67
2023-01-23T04:56:51.684Z,68.67
2023-01-23T04:57:52.611Z,68.67
2023-01-23T04:58:51.654Z,68.67
2023-01-23T04:59:51.636Z,68.67
2023-01-23T05:00:51.625Z,68.67
2023-01-23T05:01:51.631Z,68.77
2023-01-23T05:02:51.673Z,68.77
2023-01-23T05:03:51.624Z,68.77
2023-01-23T05:04:51.579Z,68.77
2023-01-23T05:05:51.561Z,68.77
2023-01-23T05:06:51.545Z,68.77
2023-01-23T05:07:51.545Z,68.77
2023-01-23T05:08:52.564Z,68.77
2023-01-23T05:09:51.523Z,68.77
2023-01-23T05:10:51.517Z,68.77
2023-01-23T05:11:51.498Z,68.77
2023-01-23T05:12:51.473Z,68.77
2023-01-23T05:13:51.521Z,68.87
2023-01-23T05:14:51.507Z,68.87
2023-01-23T05:15:52.440Z,68.87
2023-01-23T05:16:51.433Z,68.87
2023-01-23T05:17:51.431Z,68.98
2023-01-23T05:18:51.441Z,68.98
2023-01-23T05:19:51.424Z,68.98
2023-01-23T05:20:51.404Z,68.98
2023-01-23T05:21:51.455Z,68.98
2023-01-23T05:22:51.385Z,69.08
2023-01-23T05:23:51.373Z,69.08
2023-01-23T05:24:51.395Z,69.08
2023-01-23T05:25:51.419Z,69.18
2023-01-23T05:26:51.419Z,69.18
2023-01-23T05:27:51.326Z,69.18
2023-01-23T05:28:51.328Z,69.18
2023-01-23T05:29:51.314Z,69.18
2023-01-23T05:30:51.413Z,69.28
2023-01-23T05:31:51.420Z,69.31
2023-01-23T05:32:51.264Z,69.28
2023-01-23T05:33:51.288Z,69.28
2023-01-23T05:34:51.244Z,69.38
2023-01-23T05:35:51.243Z,69.28
2023-01-23T05:36:51.324Z,69.18
2023-01-23T05:37:51.227Z,69.18
2023-01-23T05:38:51.206Z,69.18
2023-01-23T05:39:51.206Z,69.08
2023-01-23T05:40:51.170Z,69.08
2023-01-23T05:41:51.176Z,69.08
2023-01-23T05:42:51.161Z,69.08
2023-01-23T05:43:51.152Z,69.08
2023-01-23T05:44:51.130Z,69.18
2023-01-23T05:45:51.161Z,69.08
2023-01-23T05:46:51.127Z,69.08
2023-01-23T05:47:51.135Z,69.08
2023-01-23T05:48:51.121Z,69.08
2023-01-23T05:49:51.085Z,69.08
2023-01-23T05:50:51.102Z,69.08
2023-01-23T05:51:51.076Z,69.08
2023-01-23T05:52:51.056Z,69.08
2023-01-23T05:53:51.052Z,69.08
2023-01-23T05:54:51.011Z,69.08
2023-01-23T05:55:51.022Z,69.08
2023-01-23T05:56:51.012Z,68.98
2023-01-23T05:57:51.014Z,69.08
2023-01-23T05:58:50.969Z,69.08
2023-01-23T05:59:51.185Z,69.08
2023-01-23T06:00:50.965Z,69.08
2023-01-23T06:01:50.954Z,69.08
2023-01-23T06:02:51.014Z,69.08
2023-01-23T06:03:50.999Z,69.08
2023-01-23T06:04:50.916Z,69.08
2023-01-23T06:05:50.907Z,68.98
2023-01-23T06:06:50.889Z,68.98
2023-01-23T06:07:50.907Z,68.87
2023-01-23T06:08:50.884Z,68.87
2023-01-23T06:09:50.872Z,68.87
2023-01-23T06:10:50.850Z,68.87
2023-01-23T06:11:50.840Z,68.87
2023-01-23T06:12:50.821Z,68.87
2023-01-23T06:13:50.821Z,68.87
2023-01-23T06:14:50.816Z,68.98
2023-01-23T06:15:50.960Z,68.98
2023-01-23T06:16:50.789Z,69.08
2023-01-23T06:17:50.931Z,69.08
2023-01-23T06:18:50.810Z,69.18
2023-01-23T06:19:50.798Z,69.18
2023-01-23T06:20:50.738Z,69.18
2023-01-23T06:21:50.717Z,69.28
2023-01-23T06:22:50.751Z,69.28
2023-01-23T06:23:50.734Z,69.28
2023-01-23T06:24:50.708Z,69.28
2023-01-23T06:25:50.711Z,69.28
2023-01-23T06:26:51.342Z,69.28
2023-01-23T06:27:50.728Z,69.28
2023-01-23T06:28:50.656Z,69.28
2023-01-23T06:29:50.677Z,69.38
2023-01-23T06:30:51.352Z,69.35
2023-01-23T06:31:50.718Z,69.24
2023-01-23T06:32:50.618Z,69.24
2023-01-23T06:33:51.269Z,69.24
2023-01-23T06:34:50.595Z,69.35
2023-01-23T06:35:51.539Z,69.35
2023-01-23T06:36:50.579Z,69.24
2023-01-23T06:37:50.680Z,69.35
2023-01-23T06:38:50.561Z,69.35
2023-01-23T06:39:50.627Z,69.35
2023-01-23T06:40:50.539Z,69.45
2023-01-23T06:41:50.518Z,69.45
2023-01-23T06:42:50.508Z,69.45
2023-01-23T06:43:50.551Z,69.45
2023-01-23T06:44:50.479Z,69.45
2023-01-23T06:45:50.528Z,69.55
2023-01-23T06:46:50.647Z,69.45
2023-01-23T06:47:50.485Z,69.45
2023-01-23T06:48:50.429Z,69.45
2023-01-23T06:49:50.434Z,69.45
2023-01-23T06:50:50.442Z,69.45
2023-01-23T06:51:51.121Z,69.35
2023-01-23T06:52:50.390Z,69.35
2023-01-23T06:53:50.409Z,69.35
2023-01-23T06:54:50.368Z,69.35
2023-01-23T06:55:50.345Z,69.35
2023-01-23T06:56:50.327Z,69.35
2023-01-23T06:57:50.339Z,69.35
2023-01-23T06:58:50.325Z,69.35
2023-01-23T06:59:50.296Z,69.45
2023-01-23T07:00:50.375Z,69.45
2023-01-23T07:01:50.339Z,69.35
2023-01-23T07:02:50.287Z,69.35
2023-01-23T07:03:50.328Z,69.35
2023-01-23T07:04:50.253Z,69.35
2023-01-23T07:05:50.235Z,69.35
2023-01-23T07:06:50.225Z,69.35
2023-01-23T07:07:50.285Z,69.35
2023-01-23T07:08:50.240Z,69.35
2023-01-23T07:09:50.239Z,69.31
2023-01-23T07:10:50.192Z,69.31
2023-01-23T07:11:50.196Z,69.31
2023-01-23T07:12:50.155Z,69.31
2023-01-23T07:13:50.196Z,69.31
2023-01-23T07:14:50.168Z,69.31
2023-01-23T07:15:50.186Z,69.42
2023-01-23T07:16:50.124Z,69.42
2023-01-23T07:17:50.122Z,69.42
2023-01-23T07:18:50.106Z,69.31
2023-01-23T07:19:50.077Z,69.31
2023-01-23T07:20:50.091Z,69.31
2023-01-23T07:21:50.078Z,69.31
2023-01-23T07:22:50.052Z,69.31
2023-01-23T07:23:50.702Z,69.31
2023-01-23T07:24:50.072Z,69.31
2023-01-23T07:25:50.056Z,69.31
2023-01-23T07:26:50.039Z,69.31
2023-01-23T07:27:50.001Z,69.31
2023-01-23T07:28:49.998Z,69.31
2023-01-23T07:29:50.079Z,69.31
2023-01-23T07:30:50.011Z,69.31
2023-01-23T07:31:50.004Z,69.31
2023-01-23T07:32:49.966Z,69.31
2023-01-23T07:33:49.926Z,69.31
2023-01-23T07:34:49.923Z,69.31
2023-01-23T07:35:49.900Z,69.31
2023-01-23T07:36:49.966Z,69.28
2023-01-23T07:37:49.969Z,69.28
2023-01-23T07:38:49.890Z,69.28
2023-01-23T07:39:49.876Z,69.28
2023-01-23T07:40:49.873Z,69.28
2023-01-23T07:41:49.858Z,69.28
2023-01-23T07:42:49.842Z,69.28
2023-01-23T07:43:49.834Z,69.28
2023-01-23T07:44:49.818Z,69.28
2023-01-23T07:45:49.800Z,69.28
2023-01-23T07:46:49.901Z,69.28
2023-01-23T07:47:49.797Z,69.28
2023-01-23T07:48:49.790Z,69.28
2023-01-23T07:49:49.775Z,69.38
2023-01-23T07:50:49.804Z,69.38
2023-01-23T07:51:49.748Z,69.48
2023-01-23T07:52:49.737Z,69.48
2023-01-23T07:53:49.744Z,69.48
2023-01-23T07:54:49.726Z,69.48
2023-01-23T07:55:49.696Z,69.48
2023-01-23T07:56:49.686Z,69.48
2023-01-23T07:57:49.696Z,69.48
2023-01-23T07:58:49.699Z,69.59
2023-01-23T07:59:49.661Z,69.59
2023-01-23T08:00:49.716Z,69.59
2023-01-23T08:01:49.640Z,69.59
2023-01-23T08:02:49.633Z,69.59
2023-01-23T08:03:49.639Z,69.68
2023-01-23T08:04:49.604Z,69.68
2023-01-23T08:05:49.619Z,69.79
2023-01-23T08:06:49.579Z,69.75
2023-01-23T08:07:50.980Z,69.75
2023-01-23T08:08:49.549Z,69.75
2023-01-23T08:09:49.625Z,69.75
2023-01-23T08:10:49.558Z,69.75
2023-01-23T08:11:49.522Z,69.65
2023-01-23T08:12:49.528Z,69.65
2023-01-23T08:13:49.529Z,69.65
2023-01-23T08:14:49.479Z,69.65
2023-01-23T08:15:49.509Z,69.65
2023-01-23T08:16:49.484Z,69.65
2023-01-23T08:17:49.439Z,69.65
2023-01-23T08:18:49.438Z,69.62
2023-01-23T08:19:49.441Z,69.62
2023-01-23T08:20:49.412Z,69.62
2023-01-23T08:21:49.390Z,69.62
2023-01-23T08:22:49.441Z,69.62
2023-01-23T08:23:49.394Z,69.52
2023-01-23T08:24:49.372Z,69.62
2023-01-23T08:25:50.110Z,69.62
2023-01-23T08:26:49.364Z,69.62
2023-01-23T08:27:49.331Z,69.72
2023-01-23T08:28:49.352Z,69.62
2023-01-23T08:29:49.332Z,69.72
2023-01-23T08:30:49.342Z,69.62
2023-01-23T08:31:49.362Z,69.59
2023-01-23T08:32:49.303Z,69.72
2023-01-23T08:33:49.278Z,69.69
2023-01-23T08:34:49.283Z,69.59
2023-01-23T08:35:49.275Z,69.59
2023-01-23T08:36:49.348Z,69.59
2023-01-23T08:41:35.498Z,69.69
2023-01-23T08:42:35.496Z,69.69
2023-01-23T08:43:35.569Z,69.79
2023-01-23T08:44:35.465Z,69.82
2023-01-23T08:45:35.606Z,69.92
2023-01-23T08:46:35.453Z,69.92
2023-01-23T08:47:35.456Z,70.02
2023-01-23T08:48:35.557Z,70.12
2023-01-23T08:49:35.422Z,70.12
2023-01-23T08:50:35.438Z,70.12
2023-01-23T08:51:35.402Z,70.22
2023-01-23T08:52:35.420Z,70.22
2023-01-23T08:53:35.369Z,70.32
2023-01-23T08:54:35.387Z,70.42
2023-01-23T08:55:35.345Z,70.53
2023-01-23T08:56:35.329Z,70.53
2023-01-23T08:57:35.439Z,70.53
2023-01-23T08:58:35.341Z,70.53
2023-01-23T08:59:35.328Z,70.62
2023-01-23T09:00:35.353Z,70.73
2023-01-23T09:01:35.314Z,70.73
2023-01-23T09:02:35.285Z,70.76
2023-01-23T09:03:35.509Z,70.86
2023-01-23T09:04:35.246Z,70.97
2023-01-23T09:05:35.224Z,70.86
2023-01-23T09:06:35.920Z,70.97
2023-01-23T09:07:35.228Z,70.97
2023-01-23T09:08:36.101Z,70.97
2023-01-23T09:09:35.200Z,71.06
2023-01-23T09:10:37.931Z,71.06
2023-01-23T09:11:35.188Z,71.06
2023-01-23T09:12:35.179Z,71.06
2023-01-23T09:13:35.147Z,71.17
2023-01-23T09:14:35.163Z,71.17
2023-01-23T09:15:35.138Z,71.17
2023-01-23T09:16:36.005Z,71.26
2023-01-23T09:17:35.137Z,71.37
2023-01-23T09:18:35.191Z,71.37
2023-01-23T09:19:35.097Z,71.37
2023-01-23T09:20:35.096Z,71.47
2023-01-23T09:21:35.073Z,71.47
2023-01-23T09:22:35.060Z,71.47
2023-01-23T09:23:35.180Z,71.47
2023-01-23T09:24:35.024Z,71.47
2023-01-23T09:25:35.024Z,71.47
2023-01-23T09:26:35.040Z,71.37
2023-01-23T09:27:35.009Z,71.37
2023-01-23T09:28:34.999Z,71.23
2023-01-23T09:29:34.991Z,71.13
2023-01-23T09:30:34.985Z,71.03
2023-01-23T09:31:34.970Z,71.03
2023-01-23T09:32:35.058Z,70.93
2023-01-23T09:33:34.994Z,70.83
2023-01-23T09:34:34.939Z,70.83
2023-01-23T09:35:34.906Z,70.73
2023-01-23T09:36:42.951Z,70.73
2023-01-23T09:37:35.884Z,70.62
2023-01-23T09:38:34.862Z,70.59
2023-01-23T09:39:34.914Z,70.50
2023-01-23T09:40:34.879Z,70.50
2023-01-23T09:41:34.964Z,70.39
2023-01-23T09:42:34.846Z,70.39
2023-01-23T09:43:34.838Z,70.29
2023-01-23T09:44:34.836Z,70.29
2023-01-23T09:45:35.027Z,70.29
2023-01-23T09:46:34.809Z,70.29
2023-01-23T09:47:34.775Z,70.19
2023-01-23T09:48:34.773Z,70.19
2023-01-23T09:49:34.778Z,70.19
2023-01-23T09:50:34.793Z,70.19
2023-01-23T09:51:34.754Z,70.19
2023-01-23T09:52:34.748Z,70.19
2023-01-23T09:53:34.723Z,70.19
2023-01-23T09:54:34.737Z,70.19
2023-01-23T09:55:34.695Z,70.19
2023-01-23T09:56:34.692Z,70.19
2023-01-23T09:57:34.708Z,70.29
2023-01-23T09:58:34.684Z,70.29
2023-01-23T09:59:34.667Z,70.39
2023-01-23T10:00:34.654Z,70.50
2023-01-23T10:01:34.745Z,70.50
2023-01-23T10:02:34.649Z,70.50
2023-01-23T10:03:34.626Z,70.59
2023-01-23T10:04:34.603Z,70.59
2023-01-23T10:05:34.601Z,70.70
2023-01-23T10:06:34.583Z,70.79
2023-01-23T10:07:34.588Z,70.90
2023-01-23T10:08:34.540Z,70.90
2023-01-23T10:09:34.555Z,71.00
2023-01-23T10:10:35.285Z,71.10
2023-01-23T10:11:34.546Z,71.23
2023-01-23T10:12:34.524Z,71.23
2023-01-23T10:13:34.517Z,71.33
2023-01-23T10:14:36.504Z,71.33
2023-01-23T10:15:34.495Z,71.33
2023-01-23T10:16:49.158Z,71.44
2023-01-23T10:17:35.475Z,71.44
2023-01-23T10:18:34.454Z,71.44
2023-01-23T10:19:34.452Z,71.53
2023-01-23T10:20:34.445Z,71.53
2023-01-23T10:21:34.416Z,71.64
2023-01-23T10:22:34.421Z,71.64
2023-01-23T10:23:34.415Z,71.64
2023-01-23T10:24:40.143Z,71.64
2023-01-23T10:25:35.402Z,71.64
2023-01-23T10:26:34.364Z,71.64
2023-01-23T10:27:34.373Z,71.73
2023-01-23T10:28:34.331Z,71.73
2023-01-23T10:29:34.358Z,71.73
2023-01-23T10:30:34.506Z,71.84
2023-01-23T10:31:35.319Z,71.84
2023-01-23T10:33:34.316Z,71.94
2023-01-23T10:34:34.315Z,71.84
2023-01-23T10:35:34.277Z,71.94
2023-01-23T10:36:47.676Z,71.94
2023-01-23T10:37:35.264Z,71.94
2023-01-23T10:38:34.232Z,71.84
2023-01-23T10:39:34.219Z,71.84
2023-01-23T10:40:34.283Z,71.84
2023-01-23T10:41:34.250Z,71.94
2023-01-23T10:42:34.190Z,71.94
2023-01-23T10:43:34.197Z,71.84
2023-01-23T10:44:34.186Z,71.84
2023-01-23T10:45:34.173Z,71.73
2023-01-23T10:46:34.305Z,71.73
2023-01-23T10:47:34.499Z,71.73
2023-01-23T10:48:34.144Z,71.64
2023-01-23T10:49:34.122Z,71.64
2023-01-23T10:50:34.121Z,71.64
2023-01-23T10:51:34.223Z,71.53
2023-01-23T10:52:34.162Z,71.40
2023-01-23T10:53:34.117Z,71.40
2023-01-23T10:54:34.156Z,71.30
2023-01-23T10:55:34.088Z,71.30
2023-01-23T10:56:34.056Z,71.20
2023-01-23T10:57:34.067Z,71.20
2023-01-23T10:58:34.041Z,71.10
2023-01-23T10:59:34.030Z,71.10
2023-01-23T11:00:34.036Z,71.10
2023-01-23T11:01:34.075Z,71.00
2023-01-23T11:02:34.090Z,71.00
2023-01-23T11:03:34.008Z,71.00
2023-01-23T11:04:33.948Z,71.00
2023-01-23T11:05:43.484Z,71.00
2023-01-23T11:06:34.931Z,71.00
2023-01-23T11:07:33.932Z,71.10
2023-01-23T11:08:33.913Z,71.10
2023-01-23T11:09:33.921Z,71.10
2023-01-23T11:10:33.886Z,71.40
2023-01-23T11:11:33.921Z,71.50
2023-01-23T11:12:34.301Z,71.50
2023-01-23T11:13:33.881Z,71.56
2023-01-23T11:14:33.874Z,71.36
2023-01-23T11:15:33.936Z,71.47
2023-01-23T11:16:33.861Z,71.36
2023-01-23T11:17:33.812Z,71.36
2023-01-23T11:18:33.806Z,71.36
2023-01-23T11:19:33.827Z,71.30
2023-01-23T11:20:33.798Z,71.40
2023-01-23T11:21:33.794Z,71.30
2023-01-23T11:22:33.774Z,71.30
2023-01-23T11:23:33.801Z,71.40
2023-01-23T11:24:40.311Z,71.40
2023-01-23T11:25:34.740Z,71.40
2023-01-23T11:26:33.773Z,71.40
2023-01-23T11:27:33.701Z,71.40
2023-01-23T11:28:33.708Z,71.30
2023-01-23T11:29:33.714Z,71.30
2023-01-23T11:30:33.735Z,71.30
2023-01-23T11:31:33.819Z,71.30
2023-01-23T11:32:33.701Z,71.30
2023-01-23T11:33:33.670Z,71.30
2023-01-23T11:34:33.668Z,71.30
2023-01-23T11:35:33.634Z,71.30
2023-01-23T11:36:33.720Z,71.30
2023-01-23T11:37:33.593Z,71.30
2023-01-23T11:38:34.457Z,71.40
2023-01-23T11:39:33.593Z,71.44
2023-01-23T11:40:33.566Z,71.44
2023-01-23T11:41:33.587Z,71.44
2023-01-23T11:42:33.582Z,71.44
2023-01-23T11:43:33.571Z,71.53
2023-01-23T11:44:45.048Z,71.44
2023-01-23T11:45:34.528Z,71.44
2023-01-23T11:46:33.606Z,71.53
2023-01-23T11:47:33.504Z,71.53
2023-01-23T11:48:33.480Z,71.53
2023-01-23T11:49:33.469Z,71.53
2023-01-23T11:50:35.400Z,71.53
2023-01-23T11:51:33.533Z,71.64
2023-01-23T11:52:33.470Z,71.53
2023-01-23T11:53:41.747Z,71.67
2023-01-23T11:54:34.433Z,71.67
2023-01-23T11:55:34.812Z,71.67
2023-01-23T11:56:33.539Z,71.73
2023-01-23T11:57:33.393Z,71.73
2023-01-23T11:58:37.160Z,71.53
2023-01-23T11:59:34.365Z,71.53
2023-01-23T12:00:33.381Z,71.44
2023-01-23T12:01:33.341Z,71.44
2023-01-23T12:02:33.403Z,71.44
2023-01-23T12:03:33.444Z,71.44
2023-01-23T12:04:33.456Z,71.44
2023-01-23T12:05:33.302Z,71.33
2023-01-23T12:06:33.511Z,71.44
2023-01-23T12:07:33.318Z,71.33
2023-01-23T12:08:33.326Z,71.33
2023-01-23T12:09:33.298Z,71.44
2023-01-23T12:10:33.341Z,71.44
2023-01-23T12:11:33.275Z,71.30
2023-01-23T12:12:33.522Z,71.20
2023-01-23T12:13:33.311Z,71.20
2023-01-23T12:14:33.271Z,71.20
2023-01-23T12:15:33.248Z,71.20
2023-01-23T12:16:33.375Z,71.20
2023-01-23T12:17:33.269Z,71.30
2023-01-23T12:18:33.216Z,71.40
2023-01-23T12:19:33.244Z,71.40
2023-01-23T12:20:33.274Z,71.47
2023-01-23T12:21:33.459Z,71.47
2023-01-23T12:22:33.282Z,71.47
2023-01-23T12:23:33.190Z,71.47
2023-01-23T12:24:33.167Z,71.47
2023-01-23T12:25:33.155Z,71.47
2023-01-23T12:26:33.144Z,71.56
2023-01-23T12:27:33.194Z,71.56
2023-01-23T12:28:33.052Z,71.56
2023-01-23T12:29:33.216Z,71.56
2023-01-23T12:30:33.104Z,71.56
2023-01-23T12:31:33.204Z,71.56
2023-01-23T12:32:33.082Z,71.56
2023-01-23T12:33:33.210Z,71.56
2023-01-23T12:34:33.093Z,71.56
2023-01-23T12:35:33.172Z,71.56
2023-01-23T12:36:34.139Z,71.67
2023-01-23T12:37:33.395Z,71.56
2023-01-23T12:38:33.049Z,71.56
2023-01-23T12:39:32.964Z,71.67
2023-01-23T12:40:33.386Z,71.67
2023-01-23T12:41:32.993Z,71.67
2023-01-23T12:42:33.432Z,71.77
2023-01-23T12:43:33.000Z,71.77
2023-01-23T12:44:32.908Z,71.77
2023-01-23T12:45:33.033Z,71.77
2023-01-23T12:46:33.072Z,71.87
2023-01-23T12:47:33.139Z,71.87
2023-01-23T12:48:32.902Z,71.87
2023-01-23T12:49:32.834Z,71.87
2023-01-23T12:50:32.863Z,71.97
2023-01-23T12:51:32.877Z,71.97
2023-01-23T12:52:32.978Z,72.07
2023-01-23T12:53:32.818Z,72.07
2023-01-23T12:54:32.787Z,72.07
2023-01-23T12:55:32.759Z,72.07
2023-01-23T12:56:32.862Z,72.17
2023-01-23T12:57:45.893Z,72.17